Time;durP1;ratioP1;P1;durP2;ratioP2;P2;SDS_P1;SDS_P2;PMS_P1;PMS_P2;Temp;Humidity;BMP_temperature;BMP_pressure;BME280_temperature;BME280_humidity;BME280_pressure;Samples;Min_cycle;Max_cycle;Signal;HPM_P1;HPM_P2
2022/11/21 05:41:33;;;;;;;6.25;1.70;;;6.80;99.90;;;;;;4980835;28;20039;-85
2022/11/21 05:43:58;;;;;;;9.77;1.80;;;6.80;99.90;;;;;;4997880;28;20034;-82
2022/11/21 05:46:25;;;;;;;7.13;1.75;;;6.70;99.90;;;;;;4982746;28;20366;-86
2022/11/21 05:48:52;;;;;;;9.40;1.83;;;6.70;99.90;;;;;;4989655;28;20083;-86
2022/11/21 05:51:19;;;;;;;8.48;1.75;;;;;;;;;;4984572;28;20102;-86
2022/11/21 05:53:45;;;;;;;8.45;1.50;;;6.70;99.90;;;;;;4981521;28;20019;-88
2022/11/21 05:56:12;;;;;;;10.35;1.90;;;6.60;99.90;;;;;;4963554;28;20029;-86
2022/11/21 05:58:38;;;;;;;12.60;1.80;;;6.60;99.90;;;;;;4962360;28;20033;-85
2022/11/21 06:01:05;;;;;;;11.40;2.13;;;7.50;99.90;;;;;;4961784;28;20027;-85
2022/11/21 06:03:37;;;;;;;6.10;1.67;;;6.50;99.90;;;;;;4962998;28;20022;-84
2022/11/21 06:06:06;;;;;;;11.27;2.33;;;8.30;99.90;;;;;;4959786;29;20035;-86
2022/11/21 06:08:34;;;;;;;10.13;1.83;;;;;;;;;;4960944;28;20112;-84
2022/11/21 06:11:01;;;;;;;10.35;1.92;;;6.50;99.90;;;;;;4944698;29;20019;-85
2022/11/21 06:13:27;;;;;;;6.93;1.58;;;6.50;99.90;;;;;;4944418;29;20035;-86
2022/11/21 06:16:08;;;;;;;19.83;3.85;;;6.60;99.90;;;;;;4960124;28;20095;-86
2022/11/21 06:18:36;;;;;;;11.95;2.30;;;6.60;99.90;;;;;;4965787;28;20057;-87
2022/11/21 06:21:06;;;;;;;9.70;1.77;;;6.60;99.90;;;;;;4965570;28;20518;-86
2022/11/21 06:23:33;;;;;;;14.95;2.85;;;6.60;99.90;;;;;;4964253;28;20438;-87
2022/11/21 06:26:00;;;;;;;9.32;1.83;;;6.60;99.90;;;;;;4963979;28;20132;-85
2022/11/21 06:28:32;;;;;;;7.90;2.20;;;6.60;99.90;;;;;;4963976;28;20037;-86
2022/11/21 06:31:04;;;;;;;8.88;2.45;;;8.10;99.90;;;;;;4960446;28;20020;-87
2022/11/21 06:33:30;;;;;;;7.43;2.13;;;;;;;;;;4984894;28;20086;-89
2022/11/21 06:35:56;;;;;;;8.57;2.40;;;;;;;;;;4974913;28;20042;-87
2022/11/21 06:38:22;;;;;;;9.70;2.38;;;6.70;99.90;;;;;;4981947;28;20026;-87
2022/11/21 06:40:47;;;;;;;12.68;2.78;;;6.60;99.90;;;;;;4974385;28;20043;-87
2022/11/21 06:43:13;;;;;;;12.40;2.58;;;6.60;99.90;;;;;;4975137;28;20063;-86
2022/11/21 06:45:39;;;;;;;7.43;2.63;;;6.60;99.90;;;;;;4973957;28;20031;-87
2022/11/21 06:48:04;;;;;;;9.25;3.08;;;6.60;99.90;;;;;;4991410;28;20038;-86
2022/11/21 06:50:30;;;;;;;13.90;3.50;;;5.90;99.90;;;;;;4975226;28;20602;-88
2022/11/21 06:52:57;;;;;;;17.67;2.83;;;6.70;99.90;;;;;;4970224;28;20026;-87
2022/11/21 06:55:25;;;;;;;9.98;2.40;;;6.70;99.90;;;;;;4955681;28;20031;-86
2022/11/21 06:57:50;;;;;;;8.73;2.75;;;6.80;99.90;;;;;;4985027;28;20050;-88
2022/11/21 07:00:16;;;;;;;16.15;2.70;;;6.70;99.90;;;;;;4961397;28;20030;-88
2022/11/21 07:02:43;;;;;;;9.52;3.35;;;;;;;;;;4966436;28;20058;-89
2022/11/21 07:05:08;;;;;;;9.13;2.13;;;6.80;99.90;;;;;;4967969;28;20098;-87
2022/11/21 07:07:34;;;;;;;7.10;2.25;;;;;;;;;;4957703;28;20022;-86
2022/11/21 07:10:00;;;;;;;12.15;3.72;;;6.80;99.90;;;;;;4974297;28;20054;-86
2022/11/21 07:15:10;;;;;;;17.55;2.58;;;6.90;99.90;;;;;;4982457;28;20041;-85
2022/11/21 07:17:36;;;;;;;12.38;2.55;;;6.90;99.90;;;;;;4959303;29;20037;-88
2022/11/21 07:20:02;;;;;;;20.05;3.03;;;7.80;99.90;;;;;;4954642;29;20054;-88
2022/11/21 07:22:28;;;;;;;11.88;2.53;;;;;;;;;;4954353;29;20287;-87
2022/11/21 07:24:54;;;;;;;10.88;2.47;;;7.00;99.90;;;;;;4955497;29;20144;-88
2022/11/21 07:27:20;;;;;;;10.18;2.00;;;;;;;;;;4971604;29;20147;-88
2022/11/21 07:29:46;;;;;;;13.30;3.03;;;;;;;;;;4972717;29;20030;-87
2022/11/21 07:32:11;;;;;;;15.07;3.03;;;7.00;99.90;;;;;;4954934;29;20027;-88
2022/11/21 07:34:37;;;;;;;7.53;2.47;;;8.00;99.90;;;;;;4982924;28;20034;-87
2022/11/21 07:37:03;;;;;;;12.40;2.72;;;10.90;99.90;;;;;;4990427;28;20030;-88
2022/11/21 07:39:28;;;;;;;16.05;2.95;;;7.90;99.90;;;;;;4973843;28;20034;-88
2022/11/21 07:41:55;;;;;;;9.85;2.33;;;7.20;99.90;;;;;;4973651;28;20248;-87
2022/11/21 07:44:20;;;;;;;13.68;2.40;;;7.10;99.90;;;;;;4972444;28;20038;-88
2022/11/21 07:46:46;;;;;;;12.20;2.67;;;7.80;99.90;;;;;;4957089;28;20035;-89
2022/11/21 07:49:12;;;;;;;12.60;2.33;;;;;;;;;;4970770;28;20037;-88
2022/11/21 07:51:38;;;;;;;10.23;2.42;;;;;;;;;;4952683;29;20566;-85
2022/11/21 07:54:04;;;;;;;12.18;2.13;;;7.40;99.90;;;;;;4952579;29;20468;-87
2022/11/21 07:56:30;;;;;;;14.18;2.70;;;;;;;;;;4969240;29;20032;-87
2022/11/21 07:58:56;;;;;;;8.85;2.60;;;;;;;;;;4953214;28;20356;-86
2022/11/21 08:01:22;;;;;;;10.23;2.50;;;7.40;99.90;;;;;;4970398;29;20031;-86
2022/11/21 08:03:48;;;;;;;12.50;2.50;;;;;;;;;;4953766;29;20042;-87
2022/11/21 08:06:14;;;;;;;10.43;3.03;;;7.20;99.90;;;;;;4952102;29;20038;-88
2022/11/21 08:08:40;;;;;;;13.80;2.97;;;;;;;;;;4951288;29;20023;-88
2022/11/21 08:11:06;;;;;;;10.07;2.47;;;7.10;99.90;;;;;;4951181;29;20054;-88
2022/11/21 08:13:33;;;;;;;14.32;3.15;;;7.20;99.90;;;;;;4967298;29;20027;-89
2022/11/21 08:15:59;;;;;;;15.32;3.00;;;;;;;;;;4967694;29;20028;-85
2022/11/21 08:18:25;;;;;;;13.20;3.20;;;7.20;99.90;;;;;;4951326;29;20035;-87
2022/11/21 08:20:50;;;;;;;13.82;2.92;;;7.20;99.90;;;;;;4950852;29;20059;-89
2022/11/21 08:23:16;;;;;;;12.25;2.97;;;7.30;99.90;;;;;;4977322;28;20031;-87
2022/11/21 08:25:43;;;;;;;12.73;3.50;;;;;;;;;;4968547;28;20031;-88
2022/11/21 08:28:11;;;;;;;14.73;2.88;;;7.50;99.90;;;;;;4968531;28;20019;-88
2022/11/21 08:30:37;;;;;;;11.85;3.03;;;7.60;99.90;;;;;;4968388;28;20037;-89
2022/11/21 08:33:04;;;;;;;16.83;3.00;;;8.80;99.90;;;;;;4985952;28;20033;-87
2022/11/21 08:35:29;;;;;;;11.23;2.63;;;9.20;99.90;;;;;;4969583;28;20019;-90
2022/11/21 08:37:59;;;;;;;12.43;3.58;;;7.80;99.90;;;;;;4985353;28;20037;-88
2022/11/21 08:40:27;;;;;;;10.33;2.93;;;8.40;99.90;;;;;;4971063;28;20031;-88
2022/11/21 08:43:05;;;;;;;15.18;3.50;;;9.70;99.90;;;;;;4971696;28;20027;-89
2022/11/21 08:45:32;;;;;;;10.80;2.90;;;7.80;99.90;;;;;;4972600;28;20034;-89
2022/11/21 08:47:59;;;;;;;21.83;8.43;;;7.80;99.90;;;;;;4971724;28;20055;-88
2022/11/21 08:50:25;;;;;;;12.52;3.20;;;;;;;;;;4970169;28;20032;-88
2022/11/21 08:52:51;;;;;;;12.98;2.60;;;;;;;;;;4969140;28;20051;-89
2022/11/21 08:55:17;;;;;;;10.93;2.88;;;7.80;99.90;;;;;;4985774;28;20126;-89
2022/11/21 08:57:43;;;;;;;12.27;3.20;;;;;;;;;;4970096;28;20027;-89
2022/11/21 09:00:13;;;;;;;11.40;2.90;;;8.00;99.90;;;;;;4974361;28;20055;-87
2022/11/21 09:02:39;;;;;;;10.70;2.97;;;;;;;;;;4969814;28;20023;-88
2022/11/21 09:05:05;;;;;;;17.77;4.07;;;;;;;;;;4970810;28;20333;-86
2022/11/21 09:07:31;;;;;;;13.30;3.42;;;8.00;99.90;;;;;;4987949;28;20030;-88
2022/11/21 09:09:57;;;;;;;19.52;3.47;;;;;;;;;;4971221;28;20038;-89
2022/11/21 09:12:23;;;;;;;16.73;4.13;;;8.10;99.90;;;;;;4988348;28;20023;-86
2022/11/21 09:20:17;;;;;;;11.48;3.22;;;8.10;99.90;;;;;;4970775;28;20110;-88
2022/11/21 09:22:43;;;;;;;9.40;2.72;;;;;;;;;;4953648;29;20031;-90
2022/11/21 09:25:09;;;;;;;14.38;2.97;;;;;;;;;;4987275;28;20034;-87
2022/11/21 09:27:35;;;;;;;11.43;3.35;;;8.30;99.90;;;;;;4940228;29;20032;-86
2022/11/21 09:30:01;;;;;;;10.93;2.55;;;8.80;99.90;;;;;;4973782;28;20212;-85
2022/11/21 09:32:27;;;;;;;11.75;3.10;;;;;;;;;;4990602;28;20031;-88
2022/11/21 09:34:52;;;;;;;10.93;2.80;;;8.40;99.90;;;;;;4970036;28;20037;-86
2022/11/21 09:37:18;;;;;;;16.42;3.58;;;8.90;99.90;;;;;;4970485;28;20038;-88
2022/11/21 09:39:44;;;;;;;15.88;3.60;;;;;;;;;;4987585;28;20089;-90
2022/11/21 09:42:31;;;;;;;16.73;4.10;;;8.70;99.90;;;;;;5003505;28;20033;-87
2022/11/21 09:45:03;;;;;;;10.48;2.80;;;8.60;99.90;;;;;;5004256;28;20034;-87
2022/11/21 09:47:36;;;;;;;14.90;4.00;;;8.80;99.90;;;;;;5004074;28;20026;-84
2022/11/21 09:50:12;;;;;;;16.60;3.58;;;8.90;99.90;;;;;;4987923;28;20169;-86
2022/11/21 09:53:01;;;;;;;13.60;2.75;;;8.90;99.90;;;;;;4987759;28;20050;-87
2022/11/21 09:55:33;;;;;;;11.73;2.92;;;8.90;99.90;;;;;;5005540;28;20041;-85
2022/11/21 09:58:31;;;;;;;16.05;3.70;;;9.00;99.90;;;;;;4986679;28;20026;-86
2022/11/21 10:00:57;;;;;;;12.75;2.85;;;8.90;99.90;;;;;;4884677;29;20062;-86
2022/11/21 10:03:39;;;;;;;13.38;2.58;;;8.80;99.90;;;;;;4964069;28;20055;-87
2022/11/21 10:06:18;;;;;;;8.82;2.25;;;10.50;99.90;;;;;;4966950;28;20024;-87
2022/11/21 10:09:25;;;;;;;15.75;2.47;;;8.90;99.90;;;;;;4963200;29;20039;-84
2022/11/21 10:12:58;;;;;;;15.93;3.25;;;8.80;99.90;;;;;;4946073;28;20059;-85
2022/11/21 10:15:47;;;;;;;15.23;3.45;;;8.90;99.90;;;;;;4963278;28;20047;-89
2022/11/21 10:18:22;;;;;;;12.30;2.60;;;9.00;99.90;;;;;;4955637;29;20100;-88
2022/11/21 10:21:14;;;;;;;16.02;2.60;;;9.50;99.90;;;;;;4971620;28;20057;-90
2022/11/21 10:24:08;;;;;;;10.35;2.90;;;9.20;99.90;;;;;;4971551;29;20439;-87
2022/11/21 10:26:40;;;;;;;14.85;3.08;;;9.10;99.90;;;;;;4956104;29;20035;-87
2022/11/21 10:29:40;;;;;;;14.65;2.72;;;9.10;99.90;;;;;;4955844;28;20126;-87
2022/11/21 10:32:21;;;;;;;15.80;3.58;;;9.10;99.90;;;;;;4956735;29;20027;-86
2022/11/21 10:34:50;;;;;;;10.40;2.90;;;9.00;99.90;;;;;;4956805;29;20043;-87
2022/11/21 10:37:26;;;;;;;13.05;2.42;;;9.10;99.90;;;;;;4974250;29;20171;-86
2022/11/21 10:39:55;;;;;;;11.30;2.42;;;10.30;99.90;;;;;;4955904;29;20027;-87
2022/11/21 10:42:39;;;;;;;13.02;2.80;;;9.10;99.90;;;;;;4956682;29;20052;-84
2022/11/21 10:45:17;;;;;;;13.32;2.90;;;9.10;99.90;;;;;;4975718;29;20027;-87
2022/11/21 10:47:45;;;;;;;12.43;2.80;;;9.30;99.90;;;;;;4972636;29;20038;-87
2022/11/21 10:50:28;;;;;;;16.70;3.13;;;9.30;99.90;;;;;;4955496;29;20071;-84
2022/11/21 10:56:19;;;;;;;17.08;3.53;;;9.60;99.90;;;;;;4972361;29;20031;-87
2022/11/21 10:58:49;;;;;;;12.77;3.90;;;9.60;99.90;;;;;;4955345;29;20031;-86
2022/11/21 11:01:34;;;;;;;10.68;3.97;;;10.10;99.90;;;;;;4951453;29;20027;-89
2022/11/21 11:04:09;;;;;;;12.57;3.80;;;9.70;99.90;;;;;;4968996;29;20035;-88
2022/11/21 11:06:36;;;;;;;16.13;4.38;;;9.70;99.90;;;;;;4966452;29;20043;-84
2022/11/21 11:09:03;;;;;;;12.38;3.53;;;9.70;99.90;;;;;;4947883;28;20043;-88
2022/11/21 11:11:29;;;;;;;19.98;4.32;;;;;;;;;;4948923;29;20023;-86
2022/11/21 11:13:59;;;;;;;14.85;3.63;;;9.60;99.90;;;;;;4947445;29;20035;-87
2022/11/21 11:16:27;;;;;;;11.05;3.55;;;9.60;99.90;;;;;;4965272;29;20083;-87
2022/11/21 11:18:57;;;;;;;16.40;4.18;;;9.60;99.90;;;;;;4947403;29;20055;-85
2022/11/21 11:21:25;;;;;;;17.73;3.88;;;;;;;;;;4965304;29;20035;-89
2022/11/21 11:23:53;;;;;;;13.32;4.10;;;9.50;99.90;;;;;;4964774;29;20026;-88
2022/11/21 11:26:26;;;;;;;9.90;3.60;;;9.40;99.90;;;;;;4965838;29;20038;-88
2022/11/21 11:28:52;;;;;;;12.98;3.88;;;;;;;;;;4966218;28;20019;-88
2022/11/21 11:31:18;;;;;;;13.00;4.55;;;;;;;;;;4965909;28;20023;-88
2022/11/21 11:33:47;;;;;;;14.82;4.03;;;9.40;99.90;;;;;;4973328;28;20033;-88
2022/11/21 11:36:31;;;;;;;16.27;4.22;;;9.40;99.90;;;;;;4970310;28;20033;-88
2022/11/21 11:39:00;;;;;;;11.50;3.25;;;9.40;99.90;;;;;;4985575;28;20045;-88
2022/11/21 11:41:28;;;;;;;14.52;3.65;;;9.40;99.90;;;;;;4968259;28;20522;-87
2022/11/21 11:47:34;;;;;;;15.10;3.25;;;9.60;99.90;;;;;;4965819;29;20026;-87
2022/11/21 11:50:11;;;;;;;11.40;2.60;;;9.30;99.90;;;;;;4952626;29;20031;-89
2022/11/21 11:53:11;;;;;;;11.20;3.03;;;9.60;99.90;;;;;;4966781;29;20027;-89
2022/11/21 11:56:24;;;;;;;10.75;3.13;;;9.40;99.90;;;;;;4966013;29;20121;-89
2022/11/21 12:01:37;;;;;;;14.98;3.17;;;9.60;99.90;;;;;;4987323;28;20046;-88
2022/11/21 12:04:21;;;;;;;10.98;2.67;;;9.60;99.90;;;;;;4969996;28;20030;-89
2022/11/21 12:06:50;;;;;;;12.95;3.13;;;9.60;99.90;;;;;;4972998;28;20390;-89
2022/11/21 12:09:33;;;;;;;14.82;3.03;;;9.70;99.90;;;;;;4988567;28;20018;-86
2022/11/21 12:12:22;;;;;;;13.85;2.75;;;9.70;99.90;;;;;;4972640;28;20972;-87
2022/11/21 12:18:12;;;;;;;8.40;2.33;;;9.70;99.90;;;;;;4974609;28;20093;-86
2022/11/21 12:21:01;;;;;;;16.83;3.53;;;9.70;99.90;;;;;;4977584;28;20041;-86
2022/11/21 12:23:30;;;;;;;10.50;2.47;;;9.80;99.90;;;;;;4972572;28;20054;-83
2022/11/21 12:26:14;;;;;;;16.40;5.95;;;9.90;99.90;;;;;;4955575;28;20030;-84
2022/11/21 12:29:04;;;;;;;8.68;2.65;;;9.80;99.90;;;;;;4959597;28;20047;-86
2022/11/21 12:31:53;;;;;;;16.42;3.38;;;9.80;99.90;;;;;;4977792;28;20079;-87
2022/11/21 12:34:49;;;;;;;13.73;2.88;;;9.70;99.90;;;;;;4974388;28;20520;-90
2022/11/21 12:37:44;;;;;;;13.45;2.65;;;9.70;99.90;;;;;;4960898;28;20054;-87
2022/11/21 12:40:24;;;;;;;10.10;2.08;;;9.60;99.90;;;;;;4963030;28;20036;-88
2022/11/21 12:42:50;;;;;;;11.25;2.00;;;;;;;;;;4961922;28;20027;-88
2022/11/21 12:45:36;;;;;;;12.20;2.60;;;9.60;99.90;;;;;;4974958;28;20409;-87
2022/11/21 12:54:32;;;;;;;10.80;2.50;;;9.50;99.90;;;;;;4977524;28;20111;-87
2022/11/21 12:57:13;;;;;;;12.27;2.88;;;9.60;99.90;;;;;;4959674;28;20122;-88
2022/11/21 12:59:51;;;;;;;14.25;2.78;;;9.60;99.90;;;;;;4977347;28;20027;-89
2022/11/21 13:02:43;;;;;;;14.48;2.63;;;11.20;99.90;;;;;;4968656;28;20019;-90
2022/11/21 13:05:12;;;;;;;8.85;2.28;;;9.70;99.90;;;;;;4986633;28;20050;-86
2022/11/21 13:07:39;;;;;;;9.88;2.55;;;9.60;99.90;;;;;;4971415;28;20165;-89
2022/11/21 13:10:12;;;;;;;12.38;2.53;;;11.80;99.90;;;;;;4971594;28;20023;-88
2022/11/21 13:12:41;;;;;;;9.48;2.33;;;10.40;99.90;;;;;;4987139;28;20031;-88
2022/11/21 13:15:19;;;;;;;11.63;2.78;;;9.60;99.90;;;;;;4984362;28;20233;-88
2022/11/21 13:18:26;;;;;;;18.92;5.05;;;9.60;99.90;;;;;;4957310;28;20083;-87
2022/11/21 13:20:53;;;;;;;9.48;2.58;;;;;;;;;;4967776;28;20600;-88
2022/11/21 13:23:39;;;;;;;11.85;2.33;;;9.60;99.90;;;;;;4988199;28;20022;-86
2022/11/21 13:26:23;;;;;;;12.32;2.30;;;9.60;99.90;;;;;;4970948;28;20023;-89
2022/11/21 13:28:50;;;;;;;11.32;2.63;;;;;;;;;;4957385;28;20106;-83
2022/11/21 13:31:33;;;;;;;12.70;2.60;;;9.60;99.90;;;;;;4972800;28;20018;-86
2022/11/21 13:34:00;;;;;;;14.90;3.05;;;9.50;99.90;;;;;;4965352;28;20043;-87
2022/11/21 13:36:30;;;;;;;12.80;2.53;;;;;;;;;;4980600;28;20031;-87
2022/11/21 13:38:56;;;;;;;10.20;2.35;;;;;;;;;;4970566;28;20058;-83
2022/11/21 13:44:31;;;;;;;11.40;2.03;;;;;;;;;;4986295;28;20053;-87
2022/11/21 13:47:02;;;;;;;9.57;2.22;;;;;;;;;;4958345;28;20161;-85
2022/11/21 13:49:44;;;;;;;7.78;2.20;;;;;;;;;;4969384;28;20031;-85
2022/11/21 13:52:19;;;;;;;25.92;7.30;;;;;;;;;;4973244;28;20031;-89
2022/11/21 13:55:03;;;;;;;8.68;2.55;;;9.50;99.90;;;;;;4990399;28;20030;-88
2022/11/21 13:58:07;;;;;;;7.85;2.00;;;9.50;99.90;;;;;;4972006;28;20030;-87
2022/11/21 14:00:56;;;;;;;10.25;2.72;;;9.50;99.90;;;;;;4976413;28;20039;-87
2022/11/21 14:03:48;;;;;;;12.30;2.15;;;9.50;99.90;;;;;;4974756;28;20049;-83
2022/11/21 14:06:32;;;;;;;11.20;2.08;;;9.50;99.90;;;;;;4981470;28;20047;-85
2022/11/21 14:09:19;;;;;;;14.05;2.78;;;9.50;99.90;;;;;;4969875;28;20019;-85
2022/11/21 14:11:48;;;;;;;8.85;2.30;;;;;;;;;;4972180;28;20023;-83
2022/11/21 14:14:33;;;;;;;13.80;2.20;;;;;;;;;;5000369;28;20097;-86
2022/11/21 14:17:13;;;;;;;13.55;2.85;;;;;;;;;;4966880;28;20031;-84
2022/11/21 14:19:39;;;;;;;11.60;2.45;;;;;;;;;;4985059;28;20035;-86
2022/11/21 14:22:13;;;;;;;8.75;1.83;;;;;;;;;;4970734;28;20042;-83
2022/11/21 14:24:39;;;;;;;14.88;2.85;;;;;;;;;;4973087;28;20018;-85
2022/11/21 14:27:06;;;;;;;12.20;2.67;;;;;;;;;;4976132;28;20024;-86
2022/11/21 14:29:39;;;;;;;16.00;2.60;;;;;;;;;;4974302;28;20082;-87
2022/11/21 14:32:06;;;;;;;10.45;2.90;;;;;;;;;;4978441;28;20015;-88
2022/11/21 14:34:32;;;;;;;17.85;2.60;;;;;;;;;;4967415;28;20030;-88
2022/11/21 14:37:00;;;;;;;12.68;2.55;;;;;;;;;;4983843;28;20262;-82
2022/11/21 14:39:27;;;;;;;15.25;2.67;;;;;;;;;;4988221;28;20049;-84
2022/11/21 14:42:13;;;;;;;11.27;2.88;;;;;;;;;;4956524;28;20039;-84
2022/11/21 14:44:39;;;;;;;11.25;2.50;;;;;;;;;;5000070;28;20030;-86
2022/11/21 14:47:11;;;;;;;18.67;3.50;;;9.20;99.90;;;;;;4988256;28;20030;-84
2022/11/21 14:49:37;;;;;;;13.93;2.78;;;;;;;;;;4978554;28;20102;-85
2022/11/21 14:52:13;;;;;;;11.18;2.65;;;;;;;;;;4987533;28;20234;-84
2022/11/21 14:54:46;;;;;;;10.70;2.70;;;;;;;;;;4962753;28;20047;-85
2022/11/21 14:57:19;;;;;;;14.52;2.60;;;;;;;;;;4964620;28;20117;-85
2022/11/21 14:59:45;;;;;;;10.52;2.45;;;;;;;;;;4924532;28;1252450;-85
2022/11/21 15:02:20;;;;;;;8.32;2.38;;;9.10;99.90;;;;;;4986728;28;20023;-87
2022/11/21 15:04:47;;;;;;;10.02;3.03;;;;;;;;;;4968464;28;20037;-86
2022/11/21 15:07:20;;;;;;;9.20;2.63;;;9.10;99.90;;;;;;4968062;28;20183;-86
2022/11/21 15:09:47;;;;;;;13.85;3.25;;;;;;;;;;4972705;28;20027;-86
2022/11/21 15:12:18;;;;;;;11.70;2.67;;;9.00;99.90;;;;;;4993034;28;20027;-87
2022/11/21 15:14:47;;;;;;;11.10;2.58;;;;;;;;;;4971926;28;20027;-88
2022/11/21 15:17:20;;;;;;;8.85;2.92;;;8.90;99.90;;;;;;4993591;28;20022;-84
2022/11/21 15:19:46;;;;;;;8.68;2.63;;;;;;;;;;4996520;28;20050;-86
2022/11/21 15:22:30;;;;;;;11.20;2.55;;;;;;;;;;4976120;28;20022;-89
2022/11/21 15:25:25;;;;;;;13.98;3.10;;;;;;;;;;4973325;28;20481;-88
2022/11/21 15:33:20;;;;;;;9.32;2.15;;;8.70;99.90;;;;;;4987225;28;20074;-88
2022/11/21 15:36:12;;;;;;;10.10;2.75;;;8.60;99.90;;;;;;4991496;28;20030;-88
2022/11/21 15:39:08;;;;;;;8.68;2.70;;;8.50;99.90;;;;;;4981278;28;20194;-87
2022/11/21 15:42:36;;;;;;;7.75;2.10;;;8.50;99.90;;;;;;4963342;29;20042;-84
2022/11/21 15:45:25;;;;;;;12.57;2.80;;;8.50;99.90;;;;;;4942822;29;20028;-86
2022/11/21 15:47:57;;;;;;;13.82;2.72;;;;;;;;;;4956160;28;20503;-84
2022/11/21 15:50:27;;;;;;;11.27;3.25;;;8.40;99.90;;;;;;4946350;28;20121;-88
2022/11/21 15:53:12;;;;;;;12.68;2.85;;;8.40;99.90;;;;;;4937493;29;20038;-87
2022/11/21 15:55:40;;;;;;;12.07;2.40;;;8.30;99.90;;;;;;4950006;28;20042;-86
2022/11/21 16:02:38;;;;;;;14.32;3.97;;;8.30;99.90;;;;;;4911126;29;20066;-87
2022/11/21 16:09:19;;;;;;;15.52;2.60;;;8.30;99.90;;;;;;4920103;29;20120;-84
2022/11/21 16:22:37;;;;;;;11.18;2.33;;;8.10;99.90;;;;;;4875924;29;20052;-86
2022/11/21 16:29:06;;;;;;;12.75;3.33;;;8.30;99.90;;;;;;4913770;29;20039;-84
2022/11/21 16:31:36;;;;;;;9.70;2.58;;;8.10;99.90;;;;;;4892840;29;20040;-85
2022/11/21 16:34:04;;;;;;;15.50;3.28;;;8.10;99.90;;;;;;4930939;29;20028;-86
2022/11/21 16:36:31;;;;;;;8.75;2.63;;;8.10;99.90;;;;;;4960746;28;20400;-85
2022/11/21 16:38:57;;;;;;;12.98;2.88;;;8.10;99.90;;;;;;4954126;28;20022;-87
2022/11/21 16:41:23;;;;;;;8.68;2.90;;;9.30;99.90;;;;;;4952256;29;20031;-87
2022/11/21 16:43:51;;;;;;;14.25;2.85;;;8.00;99.90;;;;;;4945040;29;20027;-86
2022/11/21 16:46:18;;;;;;;17.20;2.85;;;;;;;;;;4961904;28;20031;-85
2022/11/21 16:48:44;;;;;;;7.93;2.35;;;;;;;;;;4943184;29;20032;-87
2022/11/21 16:51:11;;;;;;;11.88;2.80;;;;;;;;;;4962729;28;20023;-85
2022/11/21 16:53:37;;;;;;;7.55;2.40;;;;;;;;;;4945142;28;20091;-85
2022/11/21 16:56:03;;;;;;;8.57;2.35;;;;;;;;;;4959898;28;20449;-87
2022/11/21 16:58:28;;;;;;;13.50;2.67;;;8.00;99.90;;;;;;4945167;28;20103;-82
2022/11/21 17:00:54;;;;;;;11.95;2.90;;;;;;;;;;4956934;29;20094;-86
2022/11/21 17:03:20;;;;;;;11.02;2.65;;;8.00;99.90;;;;;;4956587;29;20034;-85
2022/11/21 17:05:59;;;;;;;9.98;2.92;;;9.20;99.90;;;;;;4941131;29;20186;-86
2022/11/21 17:08:26;;;;;;;12.82;3.08;;;8.00;99.90;;;;;;4968883;28;20213;-85
2022/11/21 17:10:52;;;;;;;8.77;2.80;;;8.00;99.90;;;;;;4959840;28;20027;-88
2022/11/21 17:13:18;;;;;;;9.32;2.83;;;;;;;;;;4946354;28;20027;-87
2022/11/21 17:15:44;;;;;;;11.73;2.72;;;;;;;;;;4943245;29;20027;-86
2022/11/21 17:18:09;;;;;;;10.40;2.40;;;8.00;99.90;;;;;;4955411;28;20117;-88
2022/11/21 17:20:36;;;;;;;10.80;4.28;;;;;;;;;;4961796;28;20459;-87
2022/11/21 17:23:02;;;;;;;7.90;2.47;;;;;;;;;;4960470;29;20036;-85
2022/11/21 17:25:28;;;;;;;13.10;3.13;;;;;;;;;;4954846;28;20030;-84
2022/11/21 17:27:54;;;;;;;9.95;2.67;;;7.90;99.90;;;;;;4957921;29;20024;-85
2022/11/21 17:30:20;;;;;;;10.32;2.67;;;7.90;99.90;;;;;;4954877;29;20039;-87
2022/11/21 17:32:46;;;;;;;14.02;2.67;;;8.80;99.90;;;;;;4957339;28;20031;-85
2022/11/21 17:35:11;;;;;;;12.68;2.95;;;8.10;99.90;;;;;;4946975;28;20031;-86
2022/11/21 17:37:37;;;;;;;7.38;2.58;;;8.70;99.90;;;;;;4958282;29;20027;-88
2022/11/21 17:40:05;;;;;;;9.85;2.92;;;7.90;99.90;;;;;;4958570;28;20035;-87
2022/11/21 17:42:31;;;;;;;12.27;3.08;;;7.90;99.90;;;;;;4942529;29;20392;-83
2022/11/21 17:44:57;;;;;;;12.68;3.10;;;7.90;99.90;;;;;;4939755;29;20376;-85
2022/11/21 17:47:22;;;;;;;13.30;3.22;;;7.90;99.90;;;;;;4944407;29;20035;-85
2022/11/21 17:49:48;;;;;;;11.38;4.35;;;;;;;;;;4946806;28;20027;-85
2022/11/21 17:52:14;;;;;;;8.43;2.70;;;7.90;99.90;;;;;;4949512;29;20026;-84
2022/11/21 17:54:40;;;;;;;12.82;3.85;;;7.80;99.90;;;;;;4958021;28;20035;-85
2022/11/21 17:57:05;;;;;;;12.05;3.05;;;7.80;99.90;;;;;;4942533;28;20436;-84
2022/11/21 17:59:33;;;;;;;8.45;2.85;;;7.80;99.90;;;;;;4950312;28;20450;-84
2022/11/21 18:01:59;;;;;;;11.27;3.50;;;6.90;99.90;;;;;;4945488;29;20071;-87
2022/11/21 18:04:24;;;;;;;13.35;3.40;;;7.80;99.90;;;;;;4948397;29;20031;-85
2022/11/21 18:06:50;;;;;;;11.43;3.30;;;7.80;99.90;;;;;;4958974;29;20027;-86
2022/11/21 18:09:18;;;;;;;11.60;2.72;;;7.90;99.90;;;;;;4948069;28;20030;-85
2022/11/21 18:11:45;;;;;;;9.00;2.42;;;;;;;;;;4959401;29;20027;-87
2022/11/21 18:14:12;;;;;;;10.13;2.60;;;7.90;99.90;;;;;;4944870;29;20023;-86
2022/11/21 18:16:38;;;;;;;10.63;2.80;;;7.80;99.90;;;;;;4937815;29;20020;-86
2022/11/21 18:19:04;;;;;;;11.73;3.35;;;;;;;;;;4940536;28;20091;-84
2022/11/21 18:21:32;;;;;;;9.85;2.88;;;7.90;99.90;;;;;;4944322;29;20027;-85
2022/11/21 18:24:01;;;;;;;6.35;2.35;;;;;;;;;;4958770;29;20026;-85
2022/11/21 18:26:29;;;;;;;10.80;2.63;;;7.90;99.90;;;;;;4943954;28;20495;-86
2022/11/21 18:28:56;;;;;;;7.57;2.67;;;8.00;99.90;;;;;;4971123;28;20099;-85
2022/11/21 18:31:23;;;;;;;10.57;3.10;;;;;;;;;;4942832;29;20108;-87
2022/11/21 18:33:50;;;;;;;8.85;2.55;;;7.90;99.90;;;;;;4937699;29;20016;-86
2022/11/21 18:36:17;;;;;;;8.90;2.63;;;;;;;;;;4971179;28;20057;-85
2022/11/21 18:38:43;;;;;;;12.00;2.80;;;;;;;;;;4944768;29;20039;-86
2022/11/21 18:41:23;;;;;;;8.68;2.67;;;7.90;99.90;;;;;;4944528;29;20063;-86
2022/11/21 18:43:59;;;;;;;11.60;2.63;;;7.90;99.90;;;;;;4953691;29;20030;-87
2022/11/21 18:46:26;;;;;;;8.52;2.50;;;7.90;99.90;;;;;;4966480;29;20310;-88
2022/11/21 18:48:52;;;;;;;8.13;2.80;;;;;;;;;;4967842;28;20023;-87
2022/11/21 18:51:19;;;;;;;11.10;2.50;;;;;;;;;;4959410;28;20083;-86
2022/11/21 18:54:06;;;;;;;9.27;2.47;;;7.90;99.90;;;;;;4950563;28;20046;-89
2022/11/21 18:56:33;;;;;;;13.35;3.55;;;7.90;99.90;;;;;;4967857;28;20043;-88
2022/11/21 18:58:59;;;;;;;10.57;2.40;;;;;;;;;;4957893;29;20039;-87
2022/11/21 19:01:27;;;;;;;9.10;2.70;;;7.90;99.90;;;;;;4949072;29;20039;-90
2022/11/21 19:03:53;;;;;;;9.85;2.28;;;;;;;;;;4965548;29;20035;-88
2022/11/21 19:06:21;;;;;;;13.93;3.00;;;7.90;99.90;;;;;;4967237;28;20093;-86
2022/11/21 19:08:54;;;;;;;9.63;2.70;;;7.90;99.90;;;;;;4958154;29;20023;-87
2022/11/21 19:11:23;;;;;;;9.98;2.72;;;7.80;99.90;;;;;;4963675;29;20091;-86
2022/11/21 19:13:49;;;;;;;8.68;2.70;;;7.90;99.90;;;;;;4965529;29;20031;-87
2022/11/21 19:16:17;;;;;;;9.82;3.10;;;;;;;;;;4943000;29;20031;-87
2022/11/21 19:18:43;;;;;;;9.82;3.08;;;;;;;;;;4956661;29;20032;-89
2022/11/21 19:21:13;;;;;;;15.70;3.63;;;7.80;99.90;;;;;;4963361;28;20063;-86
2022/11/21 19:23:40;;;;;;;10.73;3.40;;;7.80;99.90;;;;;;4968854;28;20049;-87
2022/11/21 19:26:15;;;;;;;10.55;3.28;;;7.80;99.90;;;;;;4945577;29;20095;-89
2022/11/21 19:28:42;;;;;;;11.82;3.28;;;7.80;99.90;;;;;;4951209;29;20023;-88
2022/11/21 19:31:11;;;;;;;16.35;3.30;;;7.80;99.90;;;;;;4964971;28;20391;-86
2022/11/21 19:33:37;;;;;;;10.40;3.05;;;;;;;;;;4947156;29;20054;-89
2022/11/21 19:36:06;;;;;;;9.65;2.80;;;7.80;99.90;;;;;;4976024;28;20090;-86
2022/11/21 19:38:33;;;;;;;10.32;2.80;;;;;;;;;;4963248;29;20051;-87
2022/11/21 19:41:12;;;;;;;9.57;3.28;;;;;;;;;;4965763;28;20036;-87
2022/11/21 19:43:43;;;;;;;10.77;3.15;;;7.80;99.90;;;;;;4941550;29;20118;-87
2022/11/21 19:46:09;;;;;;;8.75;2.80;;;;;;;;;;4966405;28;20033;-87
2022/11/21 19:48:35;;;;;;;8.95;2.50;;;;;;;;;;4935037;29;20046;-87
2022/11/21 19:51:01;;;;;;;9.57;3.28;;;7.70;99.90;;;;;;4962612;28;20031;-88
2022/11/21 19:53:32;;;;;;;10.90;3.70;;;7.70;99.90;;;;;;4936722;28;20028;-87
2022/11/21 19:55:58;;;;;;;8.93;3.20;;;;;;;;;;4968633;28;20044;-88
2022/11/21 19:58:26;;;;;;;9.35;2.92;;;;;;;;;;4967491;28;20492;-86
2022/11/21 20:00:52;;;;;;;11.65;3.20;;;;;;;;;;4969702;28;20047;-89
2022/11/21 20:03:18;;;;;;;9.35;3.58;;;;;;;;;;4965027;29;20082;-87
2022/11/21 20:05:44;;;;;;;9.90;3.45;;;7.70;99.90;;;;;;4967623;28;20094;-89
2022/11/21 20:08:10;;;;;;;8.23;2.88;;;;;;;;;;4968585;29;20110;-86
2022/11/21 20:10:35;;;;;;;9.27;3.50;;;7.60;99.90;;;;;;4970730;28;20027;-87
2022/11/21 20:13:01;;;;;;;11.73;3.13;;;;;;;;;;4960379;29;20019;-87
2022/11/21 20:15:27;;;;;;;8.50;3.10;;;7.60;99.90;;;;;;4964692;29;20085;-88
2022/11/21 20:17:53;;;;;;;13.10;3.45;;;;;;;;;;4954512;29;20095;-87
2022/11/21 20:20:19;;;;;;;11.80;3.25;;;;;;;;;;4948698;29;20110;-87
2022/11/21 20:22:45;;;;;;;8.88;2.63;;;7.50;99.90;;;;;;4950397;28;20027;-86